»·PEaware :: N56694 KSFO-KSAC

N56694 :: KSFO-KSAC

FLIGHT INFORMATION

Flight Status: Arrived
Operator: Privately registered:
United States
More flights under this callsign
Pilot: Michael M. (12217)
Aircraft: Unknown
(EPIC)
More flights by this aircraft type
Origin: KSFO San Francisco Intl
United States
Destination: KSAC Sacramento Executive
United States
More flights between these airports :: More routes between these airports
Route: +SFO OAK V6 SAC
File this flight plan on PilotEdge
Remarks:
Altitude:
(Current/Filed)
10,000ft
Speed:
(Current/Filed)
250kts
Departed: 15-Sep-16 11:12 AM
Arrived: 15-Sep-16 11:45 AM
Distance/Time
Traveled:
68nm/0:33
Distance/Time
To Go:
Arrived

Flight Plot

Page will automatically refresh every two minutes.

Flight plan parsing failed; only flown route is shown


Map Options




Map Legend


Flown Route
Filed Route
Departure Airport
Arrival Airport
Navaid (VOR, NDB)
Fix

Horizontal Profiles

Position Reports

Time Latitude Longitude Heading Altitude Ground
Speed
15-Sep-16 10:30 37.627694 -122.384248 294 15ft 0kts
15-Sep-16 10:31 37.627694 -122.384248 294 15ft 0kts
15-Sep-16 10:32 37.627694 -122.384248 294 15ft 0kts
15-Sep-16 10:33 37.627694 -122.384248 294 15ft 0kts
15-Sep-16 10:34 37.627694 -122.384248 294 15ft 0kts
15-Sep-16 10:35 37.627694 -122.384248 294 15ft 0kts
15-Sep-16 10:36 37.627694 -122.384248 294 15ft 0kts
15-Sep-16 10:37 37.627694 -122.384248 294 15ft 0kts
15-Sep-16 10:38 37.627694 -122.384248 294 15ft 0kts
15-Sep-16 10:39 37.627568 -122.384648 214 15ft 0kts
15-Sep-16 10:40 37.627568 -122.384648 214 15ft 0kts
15-Sep-16 10:41 37.627568 -122.384648 214 15ft 0kts
15-Sep-16 10:42 37.627568 -122.384648 214 15ft 0kts
15-Sep-16 10:43 37.627568 -122.384648 214 15ft 0kts
15-Sep-16 10:44 37.627568 -122.384648 214 15ft 0kts
15-Sep-16 10:45 37.627568 -122.384648 214 15ft 0kts
15-Sep-16 10:46 37.627568 -122.384648 214 15ft 0kts
15-Sep-16 10:47 37.627568 -122.384648 214 15ft 0kts
15-Sep-16 10:48 37.627568 -122.384648 214 15ft 0kts
15-Sep-16 10:49 37.627568 -122.384648 214 15ft 0kts
15-Sep-16 10:50 37.627282 -122.384920 215 16ft 0kts
15-Sep-16 10:51 37.627282 -122.384920 215 16ft 0kts
15-Sep-16 10:52 37.627282 -122.384920 215 16ft 0kts
15-Sep-16 10:53 37.627282 -122.384920 215 16ft 0kts
15-Sep-16 10:54 37.627034 -122.385169 220 16ft 1kts
15-Sep-16 10:55 37.627657 -122.387201 297 15ft 36kts
15-Sep-16 10:56 37.627176 -122.390114 228 16ft 19kts
15-Sep-16 10:57 37.624136 -122.390459 135 22ft 9kts
15-Sep-16 10:58 37.623444 -122.389421 103 23ft 3kts
15-Sep-16 10:59 37.622480 -122.386922 121 25ft 0kts
15-Sep-16 11:00 37.622296 -122.386467 121 25ft 4kts
15-Sep-16 11:01 37.620172 -122.383224 115 27ft 9kts
15-Sep-16 11:02 37.618257 -122.378487 112 24ft 28kts
15-Sep-16 11:03 37.617745 -122.376906 108 21ft 0kts
15-Sep-16 11:04 37.617993 -122.378737 204 24ft 24kts
15-Sep-16 11:05 37.609017 -122.383586 212 27ft 15kts
15-Sep-16 11:06 37.608885 -122.383416 81 27ft 0kts
15-Sep-16 11:07 37.608885 -122.383416 81 27ft 0kts
15-Sep-16 11:08 37.608891 -122.382879 93 26ft 17kts
15-Sep-16 11:09 37.630468 -122.369523 16 1017ft 151kts
15-Sep-16 11:10 37.676160 -122.343715 27 3335ft 235kts
15-Sep-16 11:11 37.722849 -122.336012 335 5135ft 255kts
15-Sep-16 11:12 37.772312 -122.366846 333 4388ft 281kts
15-Sep-16 11:13 37.817537 -122.420216 319 4239ft 280kts
15-Sep-16 11:14 37.872509 -122.397490 74 4235ft 281kts
15-Sep-16 11:15 37.849335 -122.336773 138 4240ft 254kts
15-Sep-16 11:16 37.814830 -122.297238 137 4242ft 247kts
15-Sep-16 11:17 37.781514 -122.266076 145 4246ft 244kts
15-Sep-16 11:18 37.743638 -122.232112 145 4249ft 243kts
15-Sep-16 11:19 37.710018 -122.195443 110 4244ft 243kts
15-Sep-16 11:20 37.735222 -122.146359 23 4251ft 238kts
15-Sep-16 11:21 37.782790 -122.118478 23 4575ft 226kts
15-Sep-16 11:22 37.827210 -122.092651 23 4833ft 231kts
15-Sep-16 11:23 37.863553 -122.066062 34 4826ft 237kts
15-Sep-16 11:24 37.908920 -122.024533 35 4819ft 240kts
15-Sep-16 11:25 37.955626 -121.981378 35 4816ft 241kts
15-Sep-16 11:26 38.002349 -121.938249 35 4816ft 241kts
15-Sep-16 11:27 38.050884 -121.893306 35 4815ft 241kts
15-Sep-16 11:28 38.101030 -121.846401 35 4807ft 247kts
15-Sep-16 11:29 38.139852 -121.809510 35 4796ft 234kts
15-Sep-16 11:30 38.184037 -121.766895 35 4791ft 202kts
15-Sep-16 11:31 38.232528 -121.747186 6 4789ft 186kts
15-Sep-16 11:32 38.273049 -121.714865 38 4791ft 182kts
15-Sep-16 11:33 38.310859 -121.673719 38 4793ft 178kts
15-Sep-16 11:34 38.344110 -121.637997 38 4797ft 176kts
15-Sep-16 11:35 38.371479 -121.608956 38 4782ft 124kts
15-Sep-16 11:36 38.389332 -121.589963 38 4820ft 153kts
15-Sep-16 11:37 38.426498 -121.551050 38 4807ft 213kts
15-Sep-16 11:38 38.467318 -121.534307 8 3316ft 206kts
15-Sep-16 11:39 38.477671 -121.497437 153 2143ft 169kts
15-Sep-16 11:40 38.464927 -121.521638 319 1995ft 159kts
15-Sep-16 11:41 38.502328 -121.503333 33 159ft 134kts
15-Sep-16 11:42 38.512806 -121.494605 28 20ft 5kts

Navigation Log

Ident Type
Flight plan parsing failed, navigation log unavailable